KCRG/CRG METAR and TAF weather

Enter ICAO airport designator
Station Type Date Time Source
KCRG METAR 2020/09/20 07:53 UTC NOAA

KCRG 200753Z 04013G24KT 6SM BR OVC012 23/21 A3002 RMK AO2 RAE19 SLP163 P0000 T02330211 $


Station Type Date Time Source
KCRG Decoded METAR 2020/09/20 07:53 UTC NOAA

JACKSONVILLE CRAIG MUN, FL, United States (KCRG) 30-20N 81-31W 13M
Sep 20, 2020 - 03:53 AM EDT / 2020.09.20 0753 UTC
Wind: from the NE (040 degrees) at 15 MPH (13 KT) gusting to 28 MPH (24 KT):0
Visibility: 6 mile(s):0
Sky conditions: overcast
Weather: mist
Precipitation last hour: A trace
Temperature: 73.9 F (23.3 C)
Dew Point: 70.0 F (21.1 C)
Relative Humidity: 87%
Pressure (altimeter): 30.02 in. Hg (1016 hPa)
ob: KCRG 200753Z 04013G24KT 6SM BR OVC012 23/21 A3002 RMK AO2 RAE19 SLP163 P0000 T02330211
cycle: 8

Station Type Date Time Source
KCRG TAF 2020/09/20 08:10 UTC NOAA

TAF
AMD KCRG 200808Z 2008/2106 03014G21KT 6SM -DZ BR OVC015
TEMPO 2008/2012 3SM -DZ BR OVC008
FM201200 03016G24KT P6SM VCSH BKN015 OVC025
FM201600 04020G30KT P6SM VCSH BKN025 OVC035
FM210000 05016G24KT P6SM SCT025 BKN035 OVC050

Example: see airport list